Time;durP1;ratioP1;P1;durP2;ratioP2;P2;SDS_P1;SDS_P2;PMS_P1;PMS_P2;Temp;Humidity;BMP_temperature;BMP_pressure;BME280_temperature;BME280_humidity;BME280_pressure;Samples;Min_cycle;Max_cycle;Signal;HPM_P1;HPM_P2
2023/09/08 00:02:25;;;;;;;12.50;7.38;;;21.30;96.20;;;;;;5044055;28;20887;-56
2023/09/08 00:04:51;;;;;;;10.02;6.78;;;21.20;96.30;;;;;;5043972;28;20206;-54
2023/09/08 00:07:17;;;;;;;16.10;7.68;;;21.20;96.50;;;;;;5039393;28;20498;-54
2023/09/08 00:09:43;;;;;;;10.18;6.82;;;21.20;96.60;;;;;;5042950;28;20029;-56
2023/09/08 00:12:08;;;;;;;9.27;6.90;;;21.20;96.70;;;;;;5041983;28;20041;-54
2023/09/08 00:14:34;;;;;;;10.65;6.78;;;21.10;96.80;;;;;;5045453;28;20420;-56
2023/09/08 00:17:00;;;;;;;9.63;7.32;;;21.10;97.00;;;;;;5044904;28;20056;-54
2023/09/08 00:19:25;;;;;;;8.45;6.78;;;21.10;97.10;;;;;;5040452;28;20044;-54
2023/09/08 00:21:51;;;;;;;8.63;6.53;;;21.00;97.20;;;;;;5044604;28;20079;-54
2023/09/08 00:24:18;;;;;;;9.48;7.03;;;21.00;97.30;;;;;;5028185;28;20164;-53
2023/09/08 00:26:44;;;;;;;10.40;7.00;;;21.00;97.40;;;;;;5046597;28;20056;-54
2023/09/08 00:29:09;;;;;;;8.25;6.97;;;20.90;97.50;;;;;;5049290;28;20041;-55
2023/09/08 00:31:35;;;;;;;7.57;6.78;;;20.90;97.60;;;;;;5049927;28;20052;-55
2023/09/08 00:34:01;;;;;;;8.43;7.13;;;20.90;97.70;;;;;;5035203;28;20053;-54
2023/09/08 00:36:26;;;;;;;12.40;6.85;;;20.90;97.80;;;;;;5044767;28;20048;-56
2023/09/08 00:38:52;;;;;;;10.23;7.43;;;20.80;97.80;;;;;;5037481;28;20041;-53
2023/09/08 00:41:18;;;;;;;11.05;7.32;;;20.80;97.90;;;;;;5049612;28;20413;-53
2023/09/08 00:43:44;;;;;;;10.18;7.30;;;20.80;98.00;;;;;;5044615;28;21039;-55
2023/09/08 00:46:10;;;;;;;10.02;7.13;;;20.80;98.10;;;;;;5046894;28;20299;-53
2023/09/08 00:48:37;;;;;;;11.23;7.80;;;20.70;98.20;;;;;;5049214;28;20056;-54
2023/09/08 00:51:05;;;;;;;9.57;6.88;;;20.70;98.30;;;;;;5045216;28;20446;-55
2023/09/08 00:53:31;;;;;;;9.77;6.90;;;20.70;98.40;;;;;;5046284;28;20127;-55
2023/09/08 00:55:59;;;;;;;10.30;7.07;;;20.60;98.50;;;;;;5041782;28;20037;-54
2023/09/08 00:58:25;;;;;;;10.25;6.95;;;20.60;98.60;;;;;;5033202;28;20052;-54
2023/09/08 01:00:51;;;;;;;11.02;7.40;;;20.60;98.70;;;;;;5039324;28;20045;-54
2023/09/08 01:03:16;;;;;;;8.95;6.72;;;20.60;98.80;;;;;;5020550;28;20088;-54
2023/09/08 01:05:46;;;;;;;12.50;8.13;;;20.60;98.90;;;;;;5017434;28;20071;-55
2023/09/08 01:08:13;;;;;;;10.95;7.20;;;20.40;98.90;;;;;;5031702;28;20038;-54
2023/09/08 01:10:41;;;;;;;9.52;7.45;;;20.50;99.00;;;;;;5035686;28;20377;-53
2023/09/08 01:13:07;;;;;;;12.02;7.45;;;20.50;99.10;;;;;;5034579;28;20040;-55
2023/09/08 01:15:33;;;;;;;9.50;6.97;;;20.40;99.10;;;;;;5036340;28;20152;-54
2023/09/08 01:17:59;;;;;;;9.27;7.28;;;20.40;99.20;;;;;;5035521;28;20089;-53
2023/09/08 01:20:31;;;;;;;8.63;7.10;;;20.40;99.30;;;;;;5036456;28;20069;-54
2023/09/08 01:23:24;;;;;;;9.45;6.90;;;20.40;99.40;;;;;;5036882;28;20155;-55
2023/09/08 01:25:56;;;;;;;11.15;7.60;;;20.30;99.30;;;;;;5009704;28;20037;-52
2023/09/08 01:28:23;;;;;;;15.63;7.38;;;20.30;99.50;;;;;;5036792;28;20151;-55
2023/09/08 01:30:50;;;;;;;14.57;7.25;;;20.30;99.80;;;;;;5038012;28;20123;-52
2023/09/08 01:33:16;;;;;;;9.88;7.25;;;20.30;99.70;;;;;;5035604;28;20154;-54
2023/09/08 01:35:43;;;;;;;8.43;7.00;;;20.20;99.80;;;;;;5036612;28;20230;-53
2023/09/08 01:38:08;;;;;;;18.13;7.13;;;20.20;99.80;;;;;;5034275;28;20100;-54
2023/09/08 01:40:34;;;;;;;10.75;7.28;;;20.20;99.90;;;;;;5039723;28;20048;-53
2023/09/08 01:43:00;;;;;;;12.02;7.20;;;20.20;99.90;;;;;;5037382;28;20063;-55
2023/09/08 01:45:26;;;;;;;11.57;7.68;;;20.10;99.90;;;;;;5036832;28;20051;-56
2023/09/08 01:47:52;;;;;;;8.75;7.50;;;20.10;99.90;;;;;;5028130;28;20045;-55
2023/09/08 01:50:22;;;;;;;11.27;7.82;;;20.10;99.90;;;;;;5036731;28;20067;-56
2023/09/08 01:52:48;;;;;;;10.52;7.72;;;20.10;99.90;;;;;;5042072;28;20115;-53
2023/09/08 01:55:16;;;;;;;9.75;7.93;;;20.10;99.90;;;;;;5037984;28;20072;-52
2023/09/08 01:57:42;;;;;;;10.02;7.38;;;20.00;99.90;;;;;;5033729;28;20359;-54
2023/09/08 02:00:08;;;;;;;10.13;7.90;;;20.00;99.90;;;;;;5037363;28;20045;-53
2023/09/08 02:02:34;;;;;;;11.27;7.72;;;20.00;99.90;;;;;;5038254;28;20068;-52
2023/09/08 02:04:59;;;;;;;10.48;7.50;;;20.00;99.90;;;;;;5026433;28;20486;-51
2023/09/08 02:07:25;;;;;;;9.48;7.72;;;19.90;99.90;;;;;;5032554;28;20411;-55
2023/09/08 02:09:51;;;;;;;8.93;7.35;;;19.90;99.90;;;;;;5025407;28;20053;-54
2023/09/08 02:12:16;;;;;;;9.38;7.00;;;19.90;99.90;;;;;;5031347;28;20107;-50
2023/09/08 02:14:42;;;;;;;11.60;7.72;;;19.90;99.90;;;;;;5031799;28;20045;-55
2023/09/08 02:17:08;;;;;;;11.70;8.05;;;19.80;99.90;;;;;;5032660;28;20049;-54
2023/09/08 02:19:33;;;;;;;11.32;7.38;;;19.80;99.90;;;;;;5033041;28;20075;-55
2023/09/08 02:21:59;;;;;;;10.40;8.00;;;19.80;99.90;;;;;;5032046;28;20570;-54
2023/09/08 02:24:25;;;;;;;10.60;7.72;;;19.80;99.90;;;;;;5030641;28;20466;-53
2023/09/08 02:26:50;;;;;;;14.00;8.25;;;19.80;99.90;;;;;;5032707;28;20617;-54
2023/09/08 02:29:16;;;;;;;11.77;7.80;;;19.70;99.90;;;;;;5032763;28;20041;-52
2023/09/08 02:31:43;;;;;;;8.95;7.90;;;19.80;99.90;;;;;;5030895;28;20443;-53
2023/09/08 02:34:08;;;;;;;13.48;8.60;;;19.70;99.90;;;;;;5030819;28;20088;-55
2023/09/08 02:36:34;;;;;;;8.60;7.65;;;19.70;99.90;;;;;;5028585;28;20263;-53
2023/09/08 02:39:00;;;;;;;11.00;7.75;;;19.70;99.90;;;;;;5030281;28;20079;-52
2023/09/08 02:41:26;;;;;;;11.32;7.85;;;19.70;99.90;;;;;;5034344;28;20132;-56
2023/09/08 02:43:51;;;;;;;12.73;7.97;;;19.60;99.90;;;;;;5024308;28;20038;-53
2023/09/08 02:46:17;;;;;;;11.73;8.07;;;19.60;99.90;;;;;;5032698;28;20040;-56
2023/09/08 02:48:43;;;;;;;9.85;7.88;;;19.60;99.90;;;;;;5019341;28;20996;-53
2023/09/08 02:51:08;;;;;;;9.88;7.55;;;19.60;99.90;;;;;;5021237;28;20041;-52
2023/09/08 02:53:34;;;;;;;15.63;8.98;;;19.60;99.90;;;;;;5033451;28;20469;-51
2023/09/08 02:56:00;;;;;;;13.88;7.82;;;19.60;99.90;;;;;;5033409;28;20071;-53
2023/09/08 02:58:27;;;;;;;10.05;8.30;;;19.50;99.90;;;;;;5029801;28;20045;-52
2023/09/08 03:00:53;;;;;;;11.07;7.60;;;19.50;99.90;;;;;;5026370;28;20044;-55
2023/09/08 03:03:19;;;;;;;11.35;8.65;;;19.40;99.90;;;;;;5029269;28;20044;-54
2023/09/08 03:05:45;;;;;;;12.90;8.48;;;19.40;99.90;;;;;;5028509;28;20037;-55
2023/09/08 03:08:11;;;;;;;12.70;9.00;;;19.40;99.90;;;;;;5029465;28;20068;-51
2023/09/08 03:10:37;;;;;;;12.93;9.00;;;19.40;99.90;;;;;;5028275;28;22305;-53
2023/09/08 03:13:06;;;;;;;11.73;8.77;;;19.40;99.90;;;;;;5032295;28;20045;-52
2023/09/08 03:15:32;;;;;;;9.80;8.77;;;19.30;99.90;;;;;;5031461;28;20150;-52
2023/09/08 03:17:58;;;;;;;12.02;9.32;;;19.30;99.90;;;;;;5033737;28;20041;-54
2023/09/08 03:20:26;;;;;;;10.25;8.98;;;19.30;99.90;;;;;;5030101;28;20136;-56
2023/09/08 03:22:52;;;;;;;10.35;8.52;;;19.30;99.90;;;;;;5035914;28;20445;-50
2023/09/08 03:25:17;;;;;;;13.40;8.07;;;19.30;99.90;;;;;;5034532;28;20037;-52
2023/09/08 03:27:43;;;;;;;10.60;8.98;;;19.30;99.90;;;;;;5035298;28;20126;-52
2023/09/08 03:30:09;;;;;;;12.52;9.02;;;19.20;99.90;;;;;;5035644;28;20737;-52
2023/09/08 03:32:36;;;;;;;16.90;9.02;;;19.20;99.90;;;;;;5036807;28;20064;-51
2023/09/08 03:35:03;;;;;;;11.48;9.00;;;19.20;99.90;;;;;;5030482;28;20140;-52
2023/09/08 03:37:29;;;;;;;14.35;8.70;;;19.20;99.90;;;;;;5032139;28;20041;-53
2023/09/08 03:39:55;;;;;;;10.25;8.75;;;19.10;99.90;;;;;;5035907;28;20248;-53
2023/09/08 03:42:21;;;;;;;9.88;8.88;;;19.10;99.90;;;;;;5037180;28;20052;-53
2023/09/08 03:44:46;;;;;;;13.63;8.55;;;19.10;99.90;;;;;;5036365;28;20041;-54
2023/09/08 03:47:12;;;;;;;13.57;8.77;;;19.10;99.90;;;;;;5032655;28;20064;-52
2023/09/08 03:49:38;;;;;;;11.10;8.73;;;19.10;99.90;;;;;;5033658;28;20083;-51
2023/09/08 03:52:04;;;;;;;11.05;9.13;;;19.10;99.90;;;;;;5026066;28;20037;-54
2023/09/08 03:54:29;;;;;;;11.60;8.85;;;19.00;99.90;;;;;;5037674;28;20504;-52
2023/09/08 03:56:55;;;;;;;12.50;8.82;;;19.00;99.90;;;;;;5041101;28;20041;-52
2023/09/08 03:59:21;;;;;;;11.40;9.18;;;19.00;99.90;;;;;;5028345;28;20418;-54
2023/09/08 04:01:47;;;;;;;13.27;9.27;;;19.00;99.90;;;;;;5037486;28;20072;-56
2023/09/08 04:04:12;;;;;;;11.82;9.32;;;18.90;99.90;;;;;;5038572;28;20652;-54
2023/09/08 04:06:38;;;;;;;11.38;8.75;;;18.90;99.90;;;;;;5038906;28;20043;-50
2023/09/08 04:09:04;;;;;;;14.02;8.88;;;18.90;99.90;;;;;;5043791;28;20102;-50
2023/09/08 04:11:29;;;;;;;17.35;9.18;;;18.90;99.90;;;;;;5040138;28;20051;-52
2023/09/08 04:13:55;;;;;;;10.95;8.98;;;18.90;99.90;;;;;;5039394;28;22362;-53
2023/09/08 04:16:21;;;;;;;11.77;9.10;;;18.90;99.90;;;;;;5037963;28;20049;-54
2023/09/08 04:18:46;;;;;;;15.30;8.90;;;18.90;99.90;;;;;;5036488;28;20074;-53
2023/09/08 04:21:12;;;;;;;11.82;8.88;;;18.90;99.90;;;;;;5037453;28;20072;-51
2023/09/08 04:23:38;;;;;;;11.20;8.73;;;18.80;99.90;;;;;;5034651;28;20040;-51
2023/09/08 04:26:04;;;;;;;12.73;9.07;;;18.80;99.90;;;;;;5037802;28;20099;-54
2023/09/08 04:28:30;;;;;;;10.45;8.88;;;18.80;99.90;;;;;;5035076;28;20037;-50
2023/09/08 04:30:55;;;;;;;11.13;9.25;;;18.80;99.90;;;;;;5032179;28;20124;-52
2023/09/08 04:33:23;;;;;;;12.75;9.35;;;18.80;99.90;;;;;;5040985;28;20483;-53
2023/09/08 04:35:49;;;;;;;11.27;9.15;;;18.80;99.90;;;;;;5033109;28;20037;-52
2023/09/08 04:38:14;;;;;;;11.70;8.50;;;18.70;99.90;;;;;;5034607;28;20052;-52
2023/09/08 04:40:41;;;;;;;11.20;9.23;;;18.70;99.90;;;;;;5038351;28;20041;-52
2023/09/08 04:43:07;;;;;;;13.13;8.63;;;18.70;99.90;;;;;;5048219;28;20036;-51
2023/09/08 04:45:33;;;;;;;13.77;9.38;;;18.70;99.90;;;;;;5035865;28;20050;-50
2023/09/08 04:47:59;;;;;;;10.13;9.02;;;18.70;99.90;;;;;;5038436;28;20041;-52
2023/09/08 04:50:24;;;;;;;13.38;10.15;;;18.60;99.90;;;;;;5036284;28;20057;-53
2023/09/08 04:52:50;;;;;;;12.65;8.73;;;18.70;99.90;;;;;;5034453;28;20040;-52
2023/09/08 04:55:17;;;;;;;11.35;9.35;;;18.70;99.90;;;;;;5038198;28;21202;-53
2023/09/08 04:57:43;;;;;;;13.20;9.63;;;18.70;99.90;;;;;;5037931;28;22046;-50
2023/09/08 05:00:09;;;;;;;11.15;9.73;;;18.60;99.90;;;;;;5039932;28;20476;-52
2023/09/08 05:02:34;;;;;;;13.63;9.45;;;18.60;99.90;;;;;;5020238;28;20041;-54
2023/09/08 05:05:00;;;;;;;13.90;10.02;;;18.60;99.90;;;;;;5033606;28;21021;-52
2023/09/08 05:07:26;;;;;;;13.45;9.48;;;18.60;99.90;;;;;;5036024;28;20569;-51
2023/09/08 05:09:51;;;;;;;10.73;9.48;;;18.60;99.90;;;;;;5024944;28;20040;-52
2023/09/08 05:12:17;;;;;;;13.63;10.07;;;18.60;99.90;;;;;;5038904;28;20033;-52
2023/09/08 05:14:43;;;;;;;14.88;9.73;;;18.60;99.90;;;;;;5037205;28;20664;-52
2023/09/08 05:17:08;;;;;;;11.45;9.75;;;18.60;99.90;;;;;;5036966;28;20104;-54
2023/09/08 05:19:34;;;;;;;13.65;9.65;;;18.60;99.90;;;;;;5024436;28;20594;-51
2023/09/08 05:22:00;;;;;;;14.63;9.60;;;18.60;99.90;;;;;;5031090;28;20045;-53
2023/09/08 05:24:26;;;;;;;12.65;9.98;;;18.60;99.90;;;;;;5028988;28;20097;-53
2023/09/08 05:26:52;;;;;;;18.65;9.63;;;18.60;99.90;;;;;;5033093;28;20061;-53
2023/09/08 05:29:18;;;;;;;16.58;9.27;;;18.60;99.90;;;;;;5030782;28;20036;-55
2023/09/08 05:31:44;;;;;;;13.27;9.52;;;18.60;99.90;;;;;;5038350;28;20041;-53
2023/09/08 05:34:10;;;;;;;12.07;9.27;;;18.60;99.90;;;;;;5032089;28;20137;-54
2023/09/08 05:36:39;;;;;;;15.43;9.10;;;18.60;99.90;;;;;;5032184;28;20038;-56
2023/09/08 05:39:06;;;;;;;12.13;9.32;;;18.60;99.90;;;;;;5034282;28;20570;-54
2023/09/08 05:41:33;;;;;;;13.13;9.65;;;18.70;99.90;;;;;;5032331;28;20129;-54
2023/09/08 05:43:59;;;;;;;15.35;9.38;;;18.70;99.90;;;;;;5035541;28;20055;-52
2023/09/08 05:46:28;;;;;;;13.20;9.63;;;18.70;99.90;;;;;;5037195;28;20040;-53
2023/09/08 05:48:53;;;;;;;14.05;10.02;;;18.70;99.90;;;;;;5036371;28;20049;-48
2023/09/08 05:51:19;;;;;;;11.40;9.43;;;18.70;99.90;;;;;;5035309;28;20033;-53
2023/09/08 05:53:45;;;;;;;9.63;8.60;;;18.80;99.90;;;;;;5035261;28;20071;-50
2023/09/08 05:56:11;;;;;;;18.50;9.70;;;18.70;99.90;;;;;;5038781;28;20041;-51
2023/09/08 05:58:36;;;;;;;13.60;8.85;;;18.80;99.90;;;;;;5029487;28;20119;-52
2023/09/08 06:01:03;;;;;;;15.18;8.88;;;18.80;99.90;;;;;;5024736;28;20780;-50
2023/09/08 06:03:29;;;;;;;10.70;9.02;;;18.80;99.90;;;;;;5031069;28;20045;-50
2023/09/08 06:05:56;;;;;;;15.07;9.05;;;18.80;99.90;;;;;;5039730;28;20045;-53
2023/09/08 06:08:22;;;;;;;11.95;8.85;;;18.80;99.90;;;;;;5027143;28;20075;-57
2023/09/08 06:10:47;;;;;;;14.15;9.40;;;18.80;99.90;;;;;;5038849;28;20032;-50
2023/09/08 06:13:13;;;;;;;18.00;9.38;;;18.90;99.90;;;;;;5045084;28;20041;-51
2023/09/08 06:15:39;;;;;;;12.38;8.93;;;18.90;99.90;;;;;;5048261;28;20036;-52
2023/09/08 06:18:05;;;;;;;11.02;9.02;;;18.90;99.90;;;;;;5045703;28;20095;-52
2023/09/08 06:20:30;;;;;;;10.95;8.48;;;18.90;99.90;;;;;;5040072;28;20115;-51
2023/09/08 06:22:56;;;;;;;12.38;8.70;;;19.00;99.90;;;;;;5038382;28;20037;-51
2023/09/08 06:25:22;;;;;;;13.80;8.77;;;19.00;99.90;;;;;;5047677;28;20029;-53
2023/09/08 06:27:48;;;;;;;14.02;8.70;;;19.00;99.90;;;;;;5049307;28;20064;-48
2023/09/08 06:30:16;;;;;;;10.63;8.55;;;19.00;99.90;;;;;;5046511;28;20324;-49
2023/09/08 06:32:42;;;;;;;13.95;9.35;;;19.00;99.90;;;;;;5025440;28;20385;-48
2023/09/08 06:35:08;;;;;;;13.38;9.00;;;19.10;99.90;;;;;;5034619;28;20060;-49
2023/09/08 06:37:38;;;;;;;13.98;9.55;;;19.10;99.90;;;;;;5036588;28;20085;-50
2023/09/08 06:40:05;;;;;;;11.07;8.95;;;19.20;99.90;;;;;;5031773;28;20152;-53
2023/09/08 06:42:30;;;;;;;10.50;8.85;;;19.20;99.90;;;;;;5036940;28;20045;-49
2023/09/08 06:44:56;;;;;;;13.45;8.45;;;19.20;99.90;;;;;;5034218;28;20361;-50
2023/09/08 06:47:22;;;;;;;12.80;8.38;;;19.20;99.90;;;;;;5035599;28;20052;-53
2023/09/08 06:49:47;;;;;;;11.60;8.23;;;19.30;99.90;;;;;;5034113;28;20033;-50
2023/09/08 06:52:13;;;;;;;13.60;8.80;;;19.40;99.90;;;;;;5035100;28;20049;-48
2023/09/08 06:54:39;;;;;;;12.75;8.00;;;19.40;99.90;;;;;;5041189;28;20182;-49
2023/09/08 06:57:05;;;;;;;11.93;8.00;;;19.50;99.90;;;;;;5037112;28;20544;-47
2023/09/08 06:59:30;;;;;;;14.82;8.02;;;19.50;99.90;;;;;;5034563;28;20044;-51
2023/09/08 07:01:56;;;;;;;11.68;7.80;;;19.50;99.90;;;;;;5034525;28;20045;-52
2023/09/08 07:04:22;;;;;;;12.38;7.18;;;19.60;99.90;;;;;;5036480;28;20718;-51
2023/09/08 07:06:49;;;;;;;11.27;7.60;;;19.70;99.90;;;;;;5037059;28;20040;-53
2023/09/08 07:09:15;;;;;;;13.95;7.70;;;19.70;99.90;;;;;;5035676;28;20055;-54
2023/09/08 07:11:41;;;;;;;10.70;7.55;;;19.80;99.90;;;;;;5014185;28;20125;-51
2023/09/08 07:14:07;;;;;;;13.13;7.25;;;19.90;99.90;;;;;;5031374;28;20159;-50
2023/09/08 07:16:33;;;;;;;10.48;7.13;;;19.90;99.90;;;;;;5038407;28;20116;-49
2023/09/08 07:19:00;;;;;;;8.68;7.03;;;20.00;99.90;;;;;;5036486;28;20053;-51
2023/09/08 07:21:26;;;;;;;16.25;7.43;;;20.10;99.90;;;;;;5043215;28;20048;-50
2023/09/08 07:23:53;;;;;;;9.20;7.18;;;20.20;99.90;;;;;;5041427;28;20087;-48
2023/09/08 07:26:19;;;;;;;9.10;7.03;;;20.20;99.90;;;;;;5038841;28;20049;-51
2023/09/08 07:28:45;;;;;;;9.75;6.95;;;20.30;99.90;;;;;;5037245;28;20045;-53
2023/09/08 07:31:11;;;;;;;8.15;6.32;;;20.40;99.90;;;;;;5036090;28;20516;-51
2023/09/08 07:33:37;;;;;;;11.35;6.57;;;20.50;99.90;;;;;;5032755;28;20507;-50
2023/09/08 07:36:08;;;;;;;12.48;6.47;;;20.60;99.90;;;;;;5042225;28;20115;-52
2023/09/08 07:38:34;;;;;;;11.88;6.78;;;20.80;99.90;;;;;;5042820;28;20656;-52
2023/09/08 07:41:02;;;;;;;10.23;6.07;;;20.80;99.90;;;;;;5039420;28;20048;-49
2023/09/08 07:43:28;;;;;;;9.52;6.65;;;21.00;99.90;;;;;;5027873;28;20522;-52
2023/09/08 07:45:54;;;;;;;6.82;6.13;;;21.10;99.90;;;;;;5044325;28;20044;-54
2023/09/08 07:48:20;;;;;;;9.00;6.00;;;21.30;99.90;;;;;;5043799;28;20569;-53
2023/09/08 07:50:46;;;;;;;12.00;6.35;;;21.40;99.90;;;;;;5042965;28;20029;-52
2023/09/08 07:53:11;;;;;;;7.53;6.05;;;21.50;99.90;;;;;;5039322;28;20055;-50
2023/09/08 07:55:37;;;;;;;10.43;5.82;;;21.60;99.90;;;;;;5037590;28;20049;-51
2023/09/08 07:58:03;;;;;;;10.50;5.63;;;21.80;99.90;;;;;;5041430;28;20071;-54
2023/09/08 08:00:29;;;;;;;12.75;6.00;;;21.90;99.90;;;;;;5035273;28;20041;-50
2023/09/08 08:02:56;;;;;;;9.55;6.00;;;22.10;99.90;;;;;;5037040;28;20509;-50
2023/09/08 08:05:23;;;;;;;8.15;5.50;;;22.20;99.90;;;;;;5043420;28;20055;-51
2023/09/08 08:07:48;;;;;;;8.23;6.20;;;22.30;99.90;;;;;;5036566;28;20049;-53
2023/09/08 08:10:14;;;;;;;8.63;5.72;;;22.50;99.90;;;;;;5041757;28;20063;-53
2023/09/08 08:12:41;;;;;;;7.75;5.53;;;22.60;99.90;;;;;;5045083;28;20772;-49
2023/09/08 08:15:09;;;;;;;9.68;6.03;;;22.80;99.90;;;;;;5044016;28;20044;-49
2023/09/08 08:17:37;;;;;;;9.07;6.25;;;22.90;99.70;;;;;;5033486;28;20051;-50
2023/09/08 08:20:06;;;;;;;14.25;5.68;;;23.00;99.60;;;;;;5042846;28;20057;-52
2023/09/08 08:22:33;;;;;;;6.32;5.68;;;23.20;99.50;;;;;;5041371;28;20029;-51
2023/09/08 08:24:59;;;;;;;7.78;5.70;;;23.30;99.40;;;;;;5044240;28;20518;-53
2023/09/08 08:27:25;;;;;;;8.43;5.63;;;23.50;99.10;;;;;;5044748;28;20041;-50
2023/09/08 08:29:51;;;;;;;10.05;5.50;;;23.60;98.90;;;;;;5042386;28;20033;-51
2023/09/08 08:32:17;;;;;;;7.93;5.80;;;23.70;98.80;;;;;;5040356;28;20523;-53
2023/09/08 08:34:44;;;;;;;14.45;5.65;;;23.80;98.90;;;;;;5055033;28;20068;-53
2023/09/08 08:37:10;;;;;;;6.45;5.07;;;24.00;98.30;;;;;;5038813;28;20062;-51
2023/09/08 08:39:36;;;;;;;7.60;5.35;;;24.10;98.10;;;;;;5037389;28;20140;-51
2023/09/08 08:42:10;;;;;;;8.07;4.80;;;24.20;97.80;;;;;;5029957;28;20053;-53
2023/09/08 08:44:38;;;;;;;5.50;5.00;;;24.30;97.50;;;;;;5039570;28;20136;-51
2023/09/08 08:47:09;;;;;;;7.07;5.05;;;24.40;97.00;;;;;;5040018;28;20044;-51
2023/09/08 08:49:36;;;;;;;6.00;5.25;;;24.50;97.00;;;;;;5045632;28;20145;-51
2023/09/08 08:52:06;;;;;;;7.75;4.70;;;24.60;96.60;;;;;;5037888;28;20508;-53
2023/09/08 08:54:40;;;;;;;6.20;4.93;;;24.80;96.60;;;;;;5052867;28;20107;-51
2023/09/08 08:57:06;;;;;;;6.63;5.05;;;24.90;96.40;;;;;;5049787;28;20049;-50
2023/09/08 08:59:33;;;;;;;6.28;5.30;;;25.10;96.10;;;;;;5050704;28;20482;-54
2023/09/08 09:01:59;;;;;;;12.30;5.30;;;25.20;95.70;;;;;;5045494;28;20045;-51
2023/09/08 09:04:26;;;;;;;14.77;5.25;;;25.30;95.40;;;;;;5034166;28;20765;-52
2023/09/08 09:06:53;;;;;;;10.38;5.50;;;25.40;95.00;;;;;;5052578;28;20041;-53
2023/09/08 09:09:20;;;;;;;11.65;4.82;;;25.50;94.70;;;;;;5048174;28;20094;-51
2023/09/08 09:11:46;;;;;;;11.48;4.88;;;25.60;94.50;;;;;;5047310;28;20485;-54
2023/09/08 09:14:11;;;;;;;10.05;5.35;;;25.70;94.40;;;;;;5048859;28;20098;-49
2023/09/08 09:16:42;;;;;;;10.80;5.30;;;25.90;93.90;;;;;;5045867;28;20040;-55
2023/09/08 09:19:08;;;;;;;16.20;5.40;;;26.00;94.00;;;;;;5042436;28;20048;-54
2023/09/08 09:21:47;;;;;;;10.68;4.93;;;26.10;93.80;;;;;;5033384;28;20074;-54
2023/09/08 09:24:33;;;;;;;9.90;5.18;;;26.20;93.50;;;;;;5032245;28;20045;-51
2023/09/08 09:27:00;;;;;;;7.30;5.30;;;26.40;93.20;;;;;;5048246;28;20048;-50
2023/09/08 09:29:27;;;;;;;8.55;5.10;;;26.50;92.70;;;;;;5038487;28;20045;-52
2023/09/08 09:31:55;;;;;;;13.27;4.90;;;26.60;92.20;;;;;;5038744;28;20053;-51
2023/09/08 09:34:22;;;;;;;5.40;4.88;;;26.70;92.20;;;;;;5030722;28;20562;-50
2023/09/08 09:36:51;;;;;;;5.35;4.43;;;26.80;92.00;;;;;;5052633;28;20836;-55
2023/09/08 09:39:22;;;;;;;8.02;5.10;;;27.00;91.60;;;;;;5045562;28;20101;-55
2023/09/08 09:41:48;;;;;;;7.60;4.72;;;27.10;91.00;;;;;;5047244;28;20041;-56
2023/09/08 09:44:15;;;;;;;6.78;4.65;;;27.20;90.50;;;;;;5034326;28;20236;-56
2023/09/08 09:46:45;;;;;;;12.35;5.20;;;27.30;90.20;;;;;;5040766;28;20098;-57
2023/09/08 09:49:19;;;;;;;10.70;4.85;;;27.40;90.00;;;;;;5050010;28;20036;-56
2023/09/08 09:51:47;;;;;;;9.48;4.80;;;27.50;89.40;;;;;;5053484;28;20047;-55
2023/09/08 09:54:13;;;;;;;9.77;4.80;;;27.60;88.60;;;;;;5046493;28;20048;-54
2023/09/08 09:56:40;;;;;;;7.03;4.78;;;27.80;88.60;;;;;;5047759;28;20041;-56
2023/09/08 09:59:12;;;;;;;7.20;4.68;;;27.90;87.50;;;;;;5044775;28;20037;-56
2023/09/08 10:01:42;;;;;;;8.25;4.68;;;28.00;87.40;;;;;;5046843;28;20660;-55
2023/09/08 10:04:09;;;;;;;10.65;4.60;;;28.10;86.30;;;;;;5047620;28;20044;-56
2023/09/08 10:06:36;;;;;;;8.98;4.53;;;28.30;86.10;;;;;;5038650;28;20964;-57
2023/09/08 10:09:05;;;;;;;8.40;4.63;;;28.50;86.10;;;;;;5047552;28;20044;-56
2023/09/08 10:11:49;;;;;;;5.10;4.38;;;28.60;84.70;;;;;;5047044;28;20499;-56
2023/09/08 10:14:17;;;;;;;6.57;4.60;;;28.70;84.60;;;;;;5046502;28;20099;-56
2023/09/08 10:16:45;;;;;;;8.65;4.43;;;28.90;84.40;;;;;;5043173;28;20051;-56
2023/09/08 10:19:11;;;;;;;6.15;4.57;;;29.00;83.30;;;;;;5051593;28;20614;-56
2023/09/08 10:21:42;;;;;;;6.55;4.57;;;29.10;84.20;;;;;;5048865;28;20487;-56
2023/09/08 10:24:38;;;;;;;5.88;4.35;;;29.20;82.20;;;;;;5025943;28;20083;-56
2023/09/08 10:27:11;;;;;;;8.18;4.25;;;29.40;83.00;;;;;;5032785;28;20068;-57
2023/09/08 10:29:38;;;;;;;5.95;4.20;;;29.60;81.60;;;;;;5034653;28;20128;-57
2023/09/08 10:32:07;;;;;;;5.28;4.68;;;29.70;79.30;;;;;;5031093;28;20498;-56
2023/09/08 10:34:34;;;;;;;8.77;4.13;;;29.80;77.80;;;;;;5036221;28;20121;-57
2023/09/08 10:37:00;;;;;;;6.68;4.05;;;29.90;76.70;;;;;;5038853;28;20080;-56
2023/09/08 10:39:38;;;;;;;8.90;3.88;;;29.90;75.80;;;;;;5038512;28;20180;-57
2023/09/08 10:42:16;;;;;;;6.00;4.47;;;30.00;75.50;;;;;;5036336;28;20052;-56
2023/09/08 10:45:13;;;;;;;8.98;4.05;;;30.00;75.40;;;;;;5034391;28;20071;-56
2023/09/08 10:47:57;;;;;;;9.43;4.55;;;30.00;75.20;;;;;;5035166;28;20526;-55
2023/09/08 10:50:39;;;;;;;7.20;3.90;;;30.20;75.70;;;;;;5039013;28;20048;-58
2023/09/08 10:53:16;;;;;;;8.37;4.07;;;30.30;74.30;;;;;;5036672;28;20548;-57
2023/09/08 10:55:47;;;;;;;7.03;4.03;;;30.40;74.10;;;;;;5039197;28;20320;-56
2023/09/08 10:58:20;;;;;;;7.10;3.72;;;30.50;73.00;;;;;;5036697;28;20060;-57
2023/09/08 11:00:54;;;;;;;4.57;3.92;;;30.60;72.30;;;;;;5024275;28;20136;-59
2023/09/08 11:03:47;;;;;;;7.10;3.88;;;30.70;72.10;;;;;;5035042;28;20033;-58
2023/09/08 11:06:16;;;;;;;6.60;4.18;;;30.80;72.80;;;;;;5030024;28;20134;-59
2023/09/08 11:08:42;;;;;;;7.13;3.80;;;31.00;72.10;;;;;;5032050;28;20523;-58
2023/09/08 11:11:11;;;;;;;8.32;4.25;;;31.10;71.10;;;;;;5031468;28;20435;-58
2023/09/08 11:13:37;;;;;;;5.80;4.00;;;31.10;70.60;;;;;;5036410;28;20037;-59
2023/09/08 11:16:03;;;;;;;5.97;3.75;;;31.20;71.00;;;;;;5035451;28;20041;-58
2023/09/08 11:18:30;;;;;;;11.73;3.90;;;31.30;70.10;;;;;;5031213;28;20064;-60
2023/09/08 11:20:56;;;;;;;11.55;3.83;;;31.50;70.50;;;;;;5034967;28;20060;-58
2023/09/08 11:23:23;;;;;;;7.47;4.10;;;31.70;69.40;;;;;;5034142;28;20044;-59
2023/09/08 11:25:53;;;;;;;4.82;3.63;;;31.70;68.10;;;;;;5018209;28;20041;-58
2023/09/08 11:28:21;;;;;;;4.22;3.83;;;31.80;67.60;;;;;;5037637;28;20033;-58
2023/09/08 11:30:48;;;;;;;4.85;3.55;;;31.90;66.80;;;;;;5024727;28;20040;-58
2023/09/08 11:33:18;;;;;;;4.93;3.58;;;32.00;66.50;;;;;;5035291;28;20135;-58
2023/09/08 11:35:46;;;;;;;6.43;3.72;;;32.10;65.70;;;;;;5036860;28;20114;-59
2023/09/08 11:38:13;;;;;;;5.65;3.70;;;32.20;65.10;;;;;;5034784;28;20040;-58
2023/09/08 11:40:39;;;;;;;5.57;4.03;;;32.30;64.60;;;;;;5038022;28;20534;-59
2023/09/08 11:43:05;;;;;;;6.60;3.40;;;32.40;64.10;;;;;;5031701;28;21081;-58
2023/09/08 11:45:34;;;;;;;4.47;3.22;;;32.50;63.50;;;;;;5030607;28;20396;-57
2023/09/08 11:48:00;;;;;;;7.65;3.78;;;32.50;63.00;;;;;;5028902;28;20056;-55
2023/09/08 11:50:26;;;;;;;4.00;3.60;;;32.60;63.10;;;;;;5031313;28;20045;-55
2023/09/08 11:52:53;;;;;;;4.95;3.70;;;32.70;63.30;;;;;;5030076;28;20090;-57
2023/09/08 11:55:21;;;;;;;5.95;3.97;;;32.90;63.30;;;;;;5035478;28;20048;-57
2023/09/08 11:57:50;;;;;;;12.35;4.20;;;33.10;62.80;;;;;;5034513;28;20044;-57
2023/09/08 12:00:18;;;;;;;7.25;3.92;;;33.00;61.20;;;;;;5031743;28;20053;-57
2023/09/08 12:02:47;;;;;;;23.92;4.32;;;33.10;61.00;;;;;;5036014;28;20094;-57
2023/09/08 12:05:24;;;;;;;11.88;3.70;;;33.10;60.80;;;;;;5035992;28;20413;-57
2023/09/08 12:07:57;;;;;;;7.18;3.67;;;33.10;60.40;;;;;;5034413;28;20052;-57
2023/09/08 12:10:24;;;;;;;8.15;3.83;;;33.20;61.50;;;;;;5038674;28;20037;-56
2023/09/08 12:13:00;;;;;;;6.65;3.50;;;33.40;61.50;;;;;;5027862;28;20604;-58
2023/09/08 12:15:38;;;;;;;5.50;3.67;;;33.60;60.90;;;;;;5028868;28;20557;-57
2023/09/08 12:18:07;;;;;;;5.13;3.42;;;33.80;60.70;;;;;;5032697;28;20517;-58
2023/09/08 12:20:33;;;;;;;6.18;3.65;;;33.80;59.90;;;;;;5037123;28;20090;-56
2023/09/08 12:23:02;;;;;;;4.35;3.63;;;33.90;59.20;;;;;;5035347;28;20135;-57
2023/09/08 12:25:28;;;;;;;3.90;3.20;;;33.90;57.40;;;;;;5040274;28;20036;-56
2023/09/08 12:27:54;;;;;;;6.97;3.17;;;33.90;57.70;;;;;;5033980;28;20056;-56
2023/09/08 12:30:29;;;;;;;6.40;3.50;;;33.90;57.20;;;;;;5033884;28;20037;-56
2023/09/08 12:32:57;;;;;;;7.10;3.53;;;33.90;56.90;;;;;;5026034;28;20387;-58
2023/09/08 12:35:23;;;;;;;4.78;3.22;;;33.90;56.40;;;;;;5025748;28;20118;-57
2023/09/08 12:37:57;;;;;;;12.02;3.60;;;34.00;56.80;;;;;;5034969;28;20072;-57
2023/09/08 12:40:28;;;;;;;7.38;3.42;;;34.00;56.80;;;;;;5040905;28;20083;-57
2023/09/08 12:42:54;;;;;;;6.32;3.47;;;34.20;56.90;;;;;;5033300;28;20076;-57